sensor_id;sensor_type;location;lat;lon;timestamp;pressure;altitude;pressure_sealevel;temperature;humidity
3428;BME280;1727;42.624;23.406;2022-12-17T00:00:43;94639.91;;;7.73;100.00
3428;BME280;1727;42.624;23.406;2022-12-17T00:03:28;94650.47;;;7.83;100.00
3428;BME280;1727;42.624;23.406;2022-12-17T00:06:13;94635.28;;;7.88;100.00
3428;BME280;1727;42.624;23.406;2022-12-17T00:08:57;94632.88;;;7.96;100.00
3428;BME280;1727;42.624;23.406;2022-12-17T00:11:41;94659.94;;;8.06;100.00
3428;BME280;1727;42.624;23.406;2022-12-17T00:14:25;94632.06;;;7.96;100.00
3428;BME280;1727;42.624;23.406;2022-12-17T00:17:09;94632.38;;;8.02;100.00
3428;BME280;1727;42.624;23.406;2022-12-17T00:19:54;94618.16;;;7.95;100.00
3428;BME280;1727;42.624;23.406;2022-12-17T00:22:40;94617.78;;;8.00;100.00
3428;BME280;1727;42.624;23.406;2022-12-17T00:25:25;94629.56;;;7.94;100.00
3428;BME280;1727;42.624;23.406;2022-12-17T00:28:09;94629.81;;;7.91;100.00
3428;BME280;1727;42.624;23.406;2022-12-17T00:30:50;94607.25;;;7.90;100.00
3428;BME280;1727;42.624;23.406;2022-12-17T00:33:35;94610.78;;;8.00;100.00
3428;BME280;1727;42.624;23.406;2022-12-17T00:36:19;94608.78;;;7.93;100.00
3428;BME280;1727;42.624;23.406;2022-12-17T00:39:04;94613.63;;;7.97;100.00
3428;BME280;1727;42.624;23.406;2022-12-17T00:41:48;94605.00;;;7.86;100.00
3428;BME280;1727;42.624;23.406;2022-12-17T00:44:32;94608.91;;;7.80;100.00
3428;BME280;1727;42.624;23.406;2022-12-17T00:47:16;94606.41;;;7.90;100.00
3428;BME280;1727;42.624;23.406;2022-12-17T00:50:00;94622.91;;;7.90;100.00
3428;BME280;1727;42.624;23.406;2022-12-17T00:52:46;94607.84;;;7.94;100.00
3428;BME280;1727;42.624;23.406;2022-12-17T00:55:30;94612.91;;;8.06;100.00
3428;BME280;1727;42.624;23.406;2022-12-17T00:58:14;94606.97;;;8.16;100.00
3428;BME280;1727;42.624;23.406;2022-12-17T01:00:58;94598.03;;;8.18;100.00
3428;BME280;1727;42.624;23.406;2022-12-17T01:03:42;94608.38;;;8.08;100.00
3428;BME280;1727;42.624;23.406;2022-12-17T01:06:23;94601.75;;;8.16;100.00
3428;BME280;1727;42.624;23.406;2022-12-17T01:09:08;94592.56;;;8.21;100.00
3428;BME280;1727;42.624;23.406;2022-12-17T01:11:52;94619.66;;;8.20;100.00
3428;BME280;1727;42.624;23.406;2022-12-17T01:14:37;94599.81;;;8.18;100.00
3428;BME280;1727;42.624;23.406;2022-12-17T01:17:20;94622.41;;;8.19;100.00
3428;BME280;1727;42.624;23.406;2022-12-17T01:20:05;94597.59;;;8.13;100.00
3428;BME280;1727;42.624;23.406;2022-12-17T01:22:50;94612.44;;;8.13;100.00
3428;BME280;1727;42.624;23.406;2022-12-17T01:25:35;94619.78;;;8.19;100.00
3428;BME280;1727;42.624;23.406;2022-12-17T01:28:21;94600.41;;;8.21;100.00
3428;BME280;1727;42.624;23.406;2022-12-17T01:31:05;94627.00;;;8.26;100.00
3428;BME280;1727;42.624;23.406;2022-12-17T01:33:49;94632.94;;;8.28;100.00
3428;BME280;1727;42.624;23.406;2022-12-17T01:36:33;94592.91;;;8.28;100.00
3428;BME280;1727;42.624;23.406;2022-12-17T01:39:17;94638.88;;;8.30;100.00
3428;BME280;1727;42.624;23.406;2022-12-17T01:42:03;94610.25;;;8.29;100.00
3428;BME280;1727;42.624;23.406;2022-12-17T01:44:51;94624.72;;;8.33;100.00
3428;BME280;1727;42.624;23.406;2022-12-17T01:47:38;94607.38;;;8.32;100.00
3428;BME280;1727;42.624;23.406;2022-12-17T01:50:26;94629.03;;;8.34;100.00
3428;BME280;1727;42.624;23.406;2022-12-17T01:53:11;94620.34;;;8.33;100.00
3428;BME280;1727;42.624;23.406;2022-12-17T01:55:57;94630.34;;;8.40;100.00
3428;BME280;1727;42.624;23.406;2022-12-17T01:58:43;94636.88;;;8.34;100.00
3428;BME280;1727;42.624;23.406;2022-12-17T02:01:27;94631.75;;;8.44;100.00
3428;BME280;1727;42.624;23.406;2022-12-17T02:04:12;94632.84;;;8.41;100.00
3428;BME280;1727;42.624;23.406;2022-12-17T02:07:07;94624.75;;;8.44;100.00
3428;BME280;1727;42.624;23.406;2022-12-17T02:10:03;94613.22;;;8.35;100.00
3428;BME280;1727;42.624;23.406;2022-12-17T02:12:54;94623.22;;;8.42;100.00
3428;BME280;1727;42.624;23.406;2022-12-17T02:15:45;94610.25;;;8.40;100.00
3428;BME280;1727;42.624;23.406;2022-12-17T02:18:38;94603.94;;;8.43;100.00
3428;BME280;1727;42.624;23.406;2022-12-17T02:21:27;94588.59;;;8.49;100.00
3428;BME280;1727;42.624;23.406;2022-12-17T02:24:17;94596.94;;;8.43;100.00
3428;BME280;1727;42.624;23.406;2022-12-17T02:27:09;94602.63;;;8.37;100.00
3428;BME280;1727;42.624;23.406;2022-12-17T02:30:02;94580.59;;;8.19;100.00
3428;BME280;1727;42.624;23.406;2022-12-17T02:32:48;94591.13;;;8.28;100.00
3428;BME280;1727;42.624;23.406;2022-12-17T02:35:38;94591.69;;;8.32;100.00
3428;BME280;1727;42.624;23.406;2022-12-17T02:38:26;94589.06;;;8.32;100.00
3428;BME280;1727;42.624;23.406;2022-12-17T02:41:14;94595.25;;;8.31;100.00
3428;BME280;1727;42.624;23.406;2022-12-17T02:44:01;94569.84;;;8.44;100.00
3428;BME280;1727;42.624;23.406;2022-12-17T02:46:47;94571.25;;;8.48;100.00
3428;BME280;1727;42.624;23.406;2022-12-17T02:49:32;94574.03;;;8.24;100.00
3428;BME280;1727;42.624;23.406;2022-12-17T02:52:18;94552.84;;;7.95;100.00
3428;BME280;1727;42.624;23.406;2022-12-17T02:55:05;94570.88;;;7.98;100.00
3428;BME280;1727;42.624;23.406;2022-12-17T02:57:49;94559.22;;;8.02;100.00
3428;BME280;1727;42.624;23.406;2022-12-17T03:00:35;94565.59;;;8.21;100.00
3428;BME280;1727;42.624;23.406;2022-12-17T03:03:19;94555.28;;;8.19;100.00
3428;BME280;1727;42.624;23.406;2022-12-17T03:06:03;94552.34;;;8.13;100.00
3428;BME280;1727;42.624;23.406;2022-12-17T03:08:46;94538.31;;;8.14;100.00
3428;BME280;1727;42.624;23.406;2022-12-17T03:11:31;94542.72;;;8.02;100.00
3428;BME280;1727;42.624;23.406;2022-12-17T03:14:15;94535.19;;;7.88;100.00
3428;BME280;1727;42.624;23.406;2022-12-17T03:17:01;94537.81;;;8.08;100.00
3428;BME280;1727;42.624;23.406;2022-12-17T03:19:45;94531.19;;;8.16;100.00
3428;BME280;1727;42.624;23.406;2022-12-17T03:22:29;94533.09;;;8.14;100.00
3428;BME280;1727;42.624;23.406;2022-12-17T03:25:14;94517.09;;;7.96;100.00
3428;BME280;1727;42.624;23.406;2022-12-17T03:28:02;94527.88;;;8.02;100.00
3428;BME280;1727;42.624;23.406;2022-12-17T03:30:47;94522.19;;;7.97;100.00
3428;BME280;1727;42.624;23.406;2022-12-17T03:33:32;94528.88;;;7.90;100.00
3428;BME280;1727;42.624;23.406;2022-12-17T03:36:17;94515.19;;;7.98;100.00
3428;BME280;1727;42.624;23.406;2022-12-17T03:39:01;94533.09;;;8.02;100.00
3428;BME280;1727;42.624;23.406;2022-12-17T03:41:45;94537.16;;;7.95;100.00
3428;BME280;1727;42.624;23.406;2022-12-17T03:44:30;94533.84;;;7.93;100.00
3428;BME280;1727;42.624;23.406;2022-12-17T03:47:14;94533.28;;;7.90;100.00
3428;BME280;1727;42.624;23.406;2022-12-17T03:50:00;94531.56;;;7.57;100.00
3428;BME280;1727;42.624;23.406;2022-12-17T03:52:44;94524.97;;;7.73;100.00
3428;BME280;1727;42.624;23.406;2022-12-17T03:55:28;94535.88;;;7.78;100.00
3428;BME280;1727;42.624;23.406;2022-12-17T03:58:12;94530.31;;;7.83;100.00
3428;BME280;1727;42.624;23.406;2022-12-17T04:00:56;94540.78;;;7.83;100.00
3428;BME280;1727;42.624;23.406;2022-12-17T04:03:40;94535.69;;;7.82;100.00
3428;BME280;1727;42.624;23.406;2022-12-17T04:06:25;94542.31;;;7.86;100.00
3428;BME280;1727;42.624;23.406;2022-12-17T04:09:10;94534.47;;;7.74;100.00
3428;BME280;1727;42.624;23.406;2022-12-17T04:11:54;94560.34;;;7.77;100.00
3428;BME280;1727;42.624;23.406;2022-12-17T04:14:38;94546.72;;;7.74;100.00
3428;BME280;1727;42.624;23.406;2022-12-17T04:17:22;94543.84;;;7.77;100.00
3428;BME280;1727;42.624;23.406;2022-12-17T04:20:21;94543.63;;;7.69;100.00
3428;BME280;1727;42.624;23.406;2022-12-17T04:23:06;94577.81;;;7.66;100.00
3428;BME280;1727;42.624;23.406;2022-12-17T04:25:50;94564.88;;;7.64;100.00
3428;BME280;1727;42.624;23.406;2022-12-17T04:28:34;94567.13;;;7.69;100.00
3428;BME280;1727;42.624;23.406;2022-12-17T04:31:18;94557.53;;;7.58;100.00
3428;BME280;1727;42.624;23.406;2022-12-17T04:34:02;94559.09;;;7.61;100.00
3428;BME280;1727;42.624;23.406;2022-12-17T04:36:46;94544.59;;;7.45;100.00
3428;BME280;1727;42.624;23.406;2022-12-17T04:39:32;94552.56;;;7.55;100.00
3428;BME280;1727;42.624;23.406;2022-12-17T04:42:17;94568.69;;;7.60;100.00
3428;BME280;1727;42.624;23.406;2022-12-17T04:45:01;94562.16;;;7.66;100.00
3428;BME280;1727;42.624;23.406;2022-12-17T04:47:45;94570.47;;;7.71;100.00
3428;BME280;1727;42.624;23.406;2022-12-17T04:50:29;94582.31;;;7.75;100.00
3428;BME280;1727;42.624;23.406;2022-12-17T04:53:13;94575.69;;;7.60;100.00
3428;BME280;1727;42.624;23.406;2022-12-17T04:55:58;94584.38;;;7.60;100.00
3428;BME280;1727;42.624;23.406;2022-12-17T04:58:42;94596.59;;;7.60;100.00
3428;BME280;1727;42.624;23.406;2022-12-17T05:01:26;94590.16;;;7.64;100.00
3428;BME280;1727;42.624;23.406;2022-12-17T05:04:10;94612.59;;;7.66;100.00
3428;BME280;1727;42.624;23.406;2022-12-17T05:06:54;94603.09;;;7.65;100.00
3428;BME280;1727;42.624;23.406;2022-12-17T05:09:38;94604.41;;;7.71;100.00
3428;BME280;1727;42.624;23.406;2022-12-17T05:12:23;94616.97;;;7.77;100.00
3428;BME280;1727;42.624;23.406;2022-12-17T05:15:09;94611.75;;;7.77;100.00
3428;BME280;1727;42.624;23.406;2022-12-17T05:17:53;94627.66;;;7.74;100.00
3428;BME280;1727;42.624;23.406;2022-12-17T05:20:37;94641.31;;;7.77;100.00
3428;BME280;1727;42.624;23.406;2022-12-17T05:23:21;94622.19;;;7.77;100.00
3428;BME280;1727;42.624;23.406;2022-12-17T05:26:07;94625.31;;;7.82;100.00
3428;BME280;1727;42.624;23.406;2022-12-17T05:28:56;94639.06;;;7.73;100.00
3428;BME280;1727;42.624;23.406;2022-12-17T05:31:40;94641.19;;;7.79;100.00
3428;BME280;1727;42.624;23.406;2022-12-17T05:34:24;94619.84;;;7.74;100.00
3428;BME280;1727;42.624;23.406;2022-12-17T05:37:08;94642.50;;;7.73;100.00
3428;BME280;1727;42.624;23.406;2022-12-17T05:39:52;94656.63;;;7.71;100.00
3428;BME280;1727;42.624;23.406;2022-12-17T05:42:36;94639.53;;;7.44;100.00
3428;BME280;1727;42.624;23.406;2022-12-17T05:45:21;94626.03;;;7.62;100.00
3428;BME280;1727;42.624;23.406;2022-12-17T05:48:05;94633.50;;;7.66;100.00
3428;BME280;1727;42.624;23.406;2022-12-17T05:50:50;94633.72;;;7.74;100.00
3428;BME280;1727;42.624;23.406;2022-12-17T05:53:34;94624.94;;;7.75;100.00
3428;BME280;1727;42.624;23.406;2022-12-17T05:56:15;94619.34;;;7.80;100.00
3428;BME280;1727;42.624;23.406;2022-12-17T05:58:59;94616.16;;;7.76;100.00
3428;BME280;1727;42.624;23.406;2022-12-17T06:01:45;94623.66;;;7.81;100.00
3428;BME280;1727;42.624;23.406;2022-12-17T06:04:29;94613.41;;;7.78;100.00
3428;BME280;1727;42.624;23.406;2022-12-17T06:07:14;94617.59;;;7.81;100.00
3428;BME280;1727;42.624;23.406;2022-12-17T06:09:58;94603.34;;;7.85;100.00
3428;BME280;1727;42.624;23.406;2022-12-17T06:12:43;94617.44;;;7.93;100.00
3428;BME280;1727;42.624;23.406;2022-12-17T06:15:27;94619.94;;;7.95;100.00
3428;BME280;1727;42.624;23.406;2022-12-17T06:18:13;94621.34;;;7.99;100.00
3428;BME280;1727;42.624;23.406;2022-12-17T06:20:57;94635.00;;;8.02;100.00
3428;BME280;1727;42.624;23.406;2022-12-17T06:23:41;94636.19;;;7.98;100.00
3428;BME280;1727;42.624;23.406;2022-12-17T06:26:22;94644.38;;;8.05;100.00
3428;BME280;1727;42.624;23.406;2022-12-17T06:29:06;94659.94;;;8.06;100.00
3428;BME280;1727;42.624;23.406;2022-12-17T06:31:49;94671.47;;;8.15;100.00
3428;BME280;1727;42.624;23.406;2022-12-17T06:34:43;94674.66;;;8.19;100.00
3428;BME280;1727;42.624;23.406;2022-12-17T06:37:28;94679.66;;;8.22;100.00
3428;BME280;1727;42.624;23.406;2022-12-17T06:40:12;94674.06;;;8.26;100.00
3428;BME280;1727;42.624;23.406;2022-12-17T06:42:56;94691.31;;;8.40;100.00
3428;BME280;1727;42.624;23.406;2022-12-17T06:45:41;94712.19;;;8.51;100.00
3428;BME280;1727;42.624;23.406;2022-12-17T06:48:26;94700.56;;;8.44;100.00
3428;BME280;1727;42.624;23.406;2022-12-17T06:51:11;94691.19;;;8.42;100.00
3428;BME280;1727;42.624;23.406;2022-12-17T06:53:56;94685.47;;;8.48;100.00
3428;BME280;1727;42.624;23.406;2022-12-17T06:56:39;94694.25;;;8.47;100.00
3428;BME280;1727;42.624;23.406;2022-12-17T06:59:23;94705.44;;;8.37;100.00
3428;BME280;1727;42.624;23.406;2022-12-17T07:02:08;94710.03;;;8.56;100.00
3428;BME280;1727;42.624;23.406;2022-12-17T07:04:53;94709.41;;;8.75;100.00
3428;BME280;1727;42.624;23.406;2022-12-17T07:07:38;94734.81;;;8.84;100.00
3428;BME280;1727;42.624;23.406;2022-12-17T07:10:22;94751.69;;;8.91;100.00
3428;BME280;1727;42.624;23.406;2022-12-17T07:13:07;94756.28;;;9.10;100.00
3428;BME280;1727;42.624;23.406;2022-12-17T07:15:54;94811.19;;;9.21;100.00
3428;BME280;1727;42.624;23.406;2022-12-17T07:18:38;94833.81;;;9.22;100.00
3428;BME280;1727;42.624;23.406;2022-12-17T07:21:22;94863.38;;;9.45;100.00
3428;BME280;1727;42.624;23.406;2022-12-17T07:24:08;94875.44;;;9.69;100.00
3428;BME280;1727;42.624;23.406;2022-12-17T07:26:53;94883.72;;;9.85;100.00
3428;BME280;1727;42.624;23.406;2022-12-17T07:29:37;94880.84;;;10.09;100.00
3428;BME280;1727;42.624;23.406;2022-12-17T07:32:21;94846.72;;;10.20;100.00
3428;BME280;1727;42.624;23.406;2022-12-17T07:35:06;94847.38;;;10.33;100.00
3428;BME280;1727;42.624;23.406;2022-12-17T07:37:57;94807.38;;;10.20;100.00
3428;BME280;1727;42.624;23.406;2022-12-17T07:40:43;94824.34;;;10.16;100.00
3428;BME280;1727;42.624;23.406;2022-12-17T07:43:30;94827.53;;;10.40;100.00
3428;BME280;1727;42.624;23.406;2022-12-17T07:49:40;94857.13;;;10.52;100.00
3428;BME280;1727;42.624;23.406;2022-12-17T07:52:24;94816.47;;;10.37;100.00
3428;BME280;1727;42.624;23.406;2022-12-17T07:55:08;94804.06;;;10.18;100.00
3428;BME280;1727;42.624;23.406;2022-12-17T07:58:01;94779.91;;;10.14;100.00
3428;BME280;1727;42.624;23.406;2022-12-17T08:00:45;94725.66;;;10.15;100.00
3428;BME280;1727;42.624;23.406;2022-12-17T08:03:30;94734.94;;;10.19;100.00
3428;BME280;1727;42.624;23.406;2022-12-17T08:06:14;94718.28;;;10.30;100.00
3428;BME280;1727;42.624;23.406;2022-12-17T08:08:57;94701.50;;;10.42;100.00
3428;BME280;1727;42.624;23.406;2022-12-17T08:11:42;94708.72;;;10.69;100.00
3428;BME280;1727;42.624;23.406;2022-12-17T08:14:27;94670.09;;;11.29;100.00
3428;BME280;1727;42.624;23.406;2022-12-17T08:17:11;94662.69;;;11.71;100.00
3428;BME280;1727;42.624;23.406;2022-12-17T08:19:56;94657.31;;;12.09;100.00
3428;BME280;1727;42.624;23.406;2022-12-17T08:22:40;94662.84;;;12.44;100.00
3428;BME280;1727;42.624;23.406;2022-12-17T08:25:24;94678.59;;;12.71;100.00
3428;BME280;1727;42.624;23.406;2022-12-17T08:28:08;94702.25;;;12.98;100.00
3428;BME280;1727;42.624;23.406;2022-12-17T08:30:54;94731.81;;;13.20;100.00
3428;BME280;1727;42.624;23.406;2022-12-17T08:33:38;94730.25;;;13.45;100.00
3428;BME280;1727;42.624;23.406;2022-12-17T08:36:22;94704.69;;;13.63;100.00
3428;BME280;1727;42.624;23.406;2022-12-17T08:39:07;94709.91;;;13.81;100.00
3428;BME280;1727;42.624;23.406;2022-12-17T08:41:51;94704.81;;;14.05;100.00
3428;BME280;1727;42.624;23.406;2022-12-17T08:44:35;94713.84;;;14.29;100.00
3428;BME280;1727;42.624;23.406;2022-12-17T08:47:20;94720.31;;;15.18;100.00
3428;BME280;1727;42.624;23.406;2022-12-17T08:50:05;94740.66;;;15.26;100.00
3428;BME280;1727;42.624;23.406;2022-12-17T08:52:56;94748.75;;;15.25;100.00
3428;BME280;1727;42.624;23.406;2022-12-17T08:55:51;94775.97;;;15.09;100.00
3428;BME280;1727;42.624;23.406;2022-12-17T08:58:36;94812.25;;;14.99;100.00
3428;BME280;1727;42.624;23.406;2022-12-17T09:01:20;94860.06;;;14.79;100.00
3428;BME280;1727;42.624;23.406;2022-12-17T09:04:06;94857.28;;;14.55;100.00
3428;BME280;1727;42.624;23.406;2022-12-17T09:06:50;94859.69;;;14.31;100.00
3428;BME280;1727;42.624;23.406;2022-12-17T09:09:34;94849.69;;;14.16;100.00
3428;BME280;1727;42.624;23.406;2022-12-17T09:12:18;94834.72;;;13.99;100.00
3428;BME280;1727;42.624;23.406;2022-12-17T09:15:03;94853.25;;;13.72;100.00
3428;BME280;1727;42.624;23.406;2022-12-17T09:17:49;94853.78;;;13.75;100.00
3428;BME280;1727;42.624;23.406;2022-12-17T09:20:51;94851.00;;;13.77;100.00
3428;BME280;1727;42.624;23.406;2022-12-17T09:23:36;94853.94;;;13.74;100.00
3428;BME280;1727;42.624;23.406;2022-12-17T09:26:20;94881.28;;;13.73;100.00
3428;BME280;1727;42.624;23.406;2022-12-17T09:29:04;94888.22;;;13.74;100.00
3428;BME280;1727;42.624;23.406;2022-12-17T09:31:51;94889.03;;;13.74;100.00
3428;BME280;1727;42.624;23.406;2022-12-17T09:34:35;94880.00;;;13.77;100.00
3428;BME280;1727;42.624;23.406;2022-12-17T09:37:20;94860.88;;;13.75;100.00
3428;BME280;1727;42.624;23.406;2022-12-17T09:40:07;94871.25;;;13.76;100.00
3428;BME280;1727;42.624;23.406;2022-12-17T09:42:56;94874.19;;;13.73;100.00
3428;BME280;1727;42.624;23.406;2022-12-17T09:45:58;94881.06;;;13.66;100.00
3428;BME280;1727;42.624;23.406;2022-12-17T09:48:54;94874.66;;;13.69;100.00
3428;BME280;1727;42.624;23.406;2022-12-17T09:51:40;94889.78;;;13.67;100.00
3428;BME280;1727;42.624;23.406;2022-12-17T09:54:36;94872.22;;;13.57;100.00
3428;BME280;1727;42.624;23.406;2022-12-17T09:57:25;94873.94;;;13.49;100.00
3428;BME280;1727;42.624;23.406;2022-12-17T10:00:24;94865.78;;;13.42;100.00
3428;BME280;1727;42.624;23.406;2022-12-17T10:03:11;94872.66;;;13.35;100.00
3428;BME280;1727;42.624;23.406;2022-12-17T10:05:55;94872.16;;;13.22;100.00
3428;BME280;1727;42.624;23.406;2022-12-17T10:08:41;94869.53;;;13.12;100.00
3428;BME280;1727;42.624;23.406;2022-12-17T10:11:29;94847.69;;;13.02;100.00
3428;BME280;1727;42.624;23.406;2022-12-17T10:14:16;94845.06;;;12.92;100.00
3428;BME280;1727;42.624;23.406;2022-12-17T10:17:01;94864.50;;;12.91;100.00
3428;BME280;1727;42.624;23.406;2022-12-17T10:19:48;94873.06;;;12.93;100.00
3428;BME280;1727;42.624;23.406;2022-12-17T10:22:41;94864.38;;;12.83;100.00
3428;BME280;1727;42.624;23.406;2022-12-17T10:25:25;94873.75;;;12.95;100.00
3428;BME280;1727;42.624;23.406;2022-12-17T10:28:13;94883.84;;;13.00;100.00
3428;BME280;1727;42.624;23.406;2022-12-17T10:30:58;94876.00;;;12.90;100.00
3428;BME280;1727;42.624;23.406;2022-12-17T10:33:43;94909.06;;;12.75;100.00
3428;BME280;1727;42.624;23.406;2022-12-17T10:36:28;94926.06;;;12.71;100.00
3428;BME280;1727;42.624;23.406;2022-12-17T10:39:15;94927.91;;;12.61;100.00
3428;BME280;1727;42.624;23.406;2022-12-17T10:42:00;94944.13;;;12.56;100.00
3428;BME280;1727;42.624;23.406;2022-12-17T10:44:46;94929.44;;;12.54;100.00
3428;BME280;1727;42.624;23.406;2022-12-17T10:47:32;94912.13;;;12.61;100.00
3428;BME280;1727;42.624;23.406;2022-12-17T10:50:19;94891.34;;;12.58;100.00
3428;BME280;1727;42.624;23.406;2022-12-17T10:53:15;94880.69;;;12.50;100.00
3428;BME280;1727;42.624;23.406;2022-12-17T10:56:00;94888.16;;;12.54;100.00
3428;BME280;1727;42.624;23.406;2022-12-17T10:58:48;94886.78;;;12.50;100.00
3428;BME280;1727;42.624;23.406;2022-12-17T11:01:36;94884.84;;;12.43;100.00
3428;BME280;1727;42.624;23.406;2022-12-17T11:04:36;94883.34;;;12.50;100.00
3428;BME280;1727;42.624;23.406;2022-12-17T11:07:23;94850.69;;;12.70;100.00
3428;BME280;1727;42.624;23.406;2022-12-17T11:10:14;94830.19;;;12.74;100.00
3428;BME280;1727;42.624;23.406;2022-12-17T11:13:02;94852.06;;;12.84;100.00
3428;BME280;1727;42.624;23.406;2022-12-17T11:15:48;94840.34;;;12.96;100.00
3428;BME280;1727;42.624;23.406;2022-12-17T11:18:40;94833.38;;;13.05;100.00
3428;BME280;1727;42.624;23.406;2022-12-17T11:21:30;94840.66;;;13.20;100.00
3428;BME280;1727;42.624;23.406;2022-12-17T11:24:25;94850.38;;;13.47;96.97
3428;BME280;1727;42.624;23.406;2022-12-17T11:27:15;94858.00;;;13.68;100.00
3428;BME280;1727;42.624;23.406;2022-12-17T11:30:01;94850.38;;;13.83;100.00
3428;BME280;1727;42.624;23.406;2022-12-17T11:32:57;94845.06;;;13.92;100.00
3428;BME280;1727;42.624;23.406;2022-12-17T11:35:50;94859.44;;;13.80;100.00
3428;BME280;1727;42.624;23.406;2022-12-17T11:38:40;94848.97;;;13.71;100.00
3428;BME280;1727;42.624;23.406;2022-12-17T11:41:36;94849.94;;;13.70;100.00
3428;BME280;1727;42.624;23.406;2022-12-17T11:44:34;94843.91;;;13.77;100.00
3428;BME280;1727;42.624;23.406;2022-12-17T11:47:28;94853.41;;;13.70;100.00
3428;BME280;1727;42.624;23.406;2022-12-17T11:50:23;94866.47;;;13.89;100.00
3428;BME280;1727;42.624;23.406;2022-12-17T11:53:18;94887.63;;;13.98;100.00
3428;BME280;1727;42.624;23.406;2022-12-17T11:56:22;94900.00;;;13.97;100.00
3428;BME280;1727;42.624;23.406;2022-12-17T11:59:22;94896.69;;;13.95;100.00
3428;BME280;1727;42.624;23.406;2022-12-17T12:02:21;94903.66;;;13.86;100.00
3428;BME280;1727;42.624;23.406;2022-12-17T12:05:18;94912.94;;;13.73;100.00
3428;BME280;1727;42.624;23.406;2022-12-17T12:08:13;94910.28;;;13.73;100.00
3428;BME280;1727;42.624;23.406;2022-12-17T12:11:04;94912.31;;;13.79;100.00
3428;BME280;1727;42.624;23.406;2022-12-17T12:13:59;94893.72;;;13.35;100.00
3428;BME280;1727;42.624;23.406;2022-12-17T12:16:51;94884.78;;;13.18;100.00
3428;BME280;1727;42.624;23.406;2022-12-17T12:19:44;94896.31;;;13.17;100.00
3428;BME280;1727;42.624;23.406;2022-12-17T12:22:36;94907.78;;;13.16;100.00
3428;BME280;1727;42.624;23.406;2022-12-17T12:25:32;94902.19;;;13.01;100.00
3428;BME280;1727;42.624;23.406;2022-12-17T12:28:27;94904.81;;;13.01;100.00
3428;BME280;1727;42.624;23.406;2022-12-17T12:31:22;94903.94;;;13.11;100.00
3428;BME280;1727;42.624;23.406;2022-12-17T12:34:11;94883.84;;;13.10;100.00
3428;BME280;1727;42.624;23.406;2022-12-17T12:36:59;94888.47;;;13.35;100.00
3428;BME280;1727;42.624;23.406;2022-12-17T12:39:49;94878.75;;;13.53;100.00
3428;BME280;1727;42.624;23.406;2022-12-17T12:42:41;94890.69;;;13.75;100.00
3428;BME280;1727;42.624;23.406;2022-12-17T12:45:36;94878.09;;;13.87;100.00
3428;BME280;1727;42.624;23.406;2022-12-17T12:48:39;94892.38;;;13.94;100.00
3428;BME280;1727;42.624;23.406;2022-12-17T12:51:27;94874.66;;;14.04;100.00
3428;BME280;1727;42.624;23.406;2022-12-17T12:54:24;94879.94;;;14.04;100.00
3428;BME280;1727;42.624;23.406;2022-12-17T12:57:30;94904.88;;;14.10;100.00
3428;BME280;1727;42.624;23.406;2022-12-17T13:00:29;94872.09;;;13.77;100.00
3428;BME280;1727;42.624;23.406;2022-12-17T13:03:32;94889.25;;;13.81;100.00
3428;BME280;1727;42.624;23.406;2022-12-17T13:06:44;94883.63;;;13.76;100.00
3428;BME280;1727;42.624;23.406;2022-12-17T13:09:37;94893.88;;;13.61;100.00
3428;BME280;1727;42.624;23.406;2022-12-17T13:12:19;94886.59;;;13.45;100.00
3428;BME280;1727;42.624;23.406;2022-12-17T13:14:53;94878.44;;;13.39;100.00
3428;BME280;1727;42.624;23.406;2022-12-17T13:17:27;94886.00;;;13.24;100.00
3428;BME280;1727;42.624;23.406;2022-12-17T13:20:00;94896.94;;;13.29;100.00
3428;BME280;1727;42.624;23.406;2022-12-17T13:22:28;94898.56;;;13.02;100.00
3428;BME280;1727;42.624;23.406;2022-12-17T13:25:08;94891.84;;;13.18;100.00
3428;BME280;1727;42.624;23.406;2022-12-17T13:27:37;94881.88;;;13.12;100.00
3428;BME280;1727;42.624;23.406;2022-12-17T13:30:18;94895.22;;;13.00;100.00
3428;BME280;1727;42.624;23.406;2022-12-17T13:32:52;94905.06;;;13.08;100.00
3428;BME280;1727;42.624;23.406;2022-12-17T13:35:30;94913.19;;;13.15;100.00
3428;BME280;1727;42.624;23.406;2022-12-17T13:38:04;94910.56;;;13.15;100.00
3428;BME280;1727;42.624;23.406;2022-12-17T13:40:43;94912.50;;;13.13;100.00
3428;BME280;1727;42.624;23.406;2022-12-17T13:43:15;94917.63;;;13.14;100.00
3428;BME280;1727;42.624;23.406;2022-12-17T13:45:43;94913.47;;;13.21;100.00
3428;BME280;1727;42.624;23.406;2022-12-17T13:48:19;94917.06;;;13.30;100.00
3428;BME280;1727;42.624;23.406;2022-12-17T13:50:52;94917.31;;;13.37;100.00
3428;BME280;1727;42.624;23.406;2022-12-17T13:53:20;94921.16;;;13.42;100.00
3428;BME280;1727;42.624;23.406;2022-12-17T13:55:49;94916.91;;;13.31;100.00
3428;BME280;1727;42.624;23.406;2022-12-17T13:58:24;94910.69;;;13.23;100.00
3428;BME280;1727;42.624;23.406;2022-12-17T14:01:03;94934.63;;;13.39;100.00
3428;BME280;1727;42.624;23.406;2022-12-17T14:03:31;94934.28;;;13.15;100.00
3428;BME280;1727;42.624;23.406;2022-12-17T14:05:58;94930.31;;;13.01;100.00
3428;BME280;1727;42.624;23.406;2022-12-17T14:08:27;94927.69;;;13.01;100.00
3428;BME280;1727;42.624;23.406;2022-12-17T14:10:56;94956.16;;;13.25;100.00
3428;BME280;1727;42.624;23.406;2022-12-17T14:13:45;94953.66;;;13.33;100.00
3428;BME280;1727;42.624;23.406;2022-12-17T14:16:14;94938.63;;;12.96;100.00
3428;BME280;1727;42.624;23.406;2022-12-17T14:18:50;94935.78;;;12.80;100.00
3428;BME280;1727;42.624;23.406;2022-12-17T14:21:17;94934.41;;;12.66;100.00
3428;BME280;1727;42.624;23.406;2022-12-17T14:23:47;94946.03;;;12.83;100.00
3428;BME280;1727;42.624;23.406;2022-12-17T14:26:15;94966.09;;;12.94;100.00
3428;BME280;1727;42.624;23.406;2022-12-17T14:28:46;94959.00;;;12.94;100.00
3428;BME280;1727;42.624;23.406;2022-12-17T14:31:19;94955.41;;;12.95;100.00
3428;BME280;1727;42.624;23.406;2022-12-17T14:33:58;94957.59;;;13.00;100.00
3428;BME280;1727;42.624;23.406;2022-12-17T14:36:26;94945.16;;;13.02;100.00
3428;BME280;1727;42.624;23.406;2022-12-17T14:38:56;94946.53;;;13.06;100.00
3428;BME280;1727;42.624;23.406;2022-12-17T14:41:24;94966.19;;;13.12;100.00
3428;BME280;1727;42.624;23.406;2022-12-17T14:44:16;94958.56;;;13.09;100.00